Briefing drone pour Portes-les-valence

Rechercher une autre localisation

Conditions de vol :


Nous sommes le : Lundi 24 janvier 2022
Il est 22:50 UTC (23:50 LT)

Lever de soleil : 06:41 UTC (07:41 LT)
Coucher de soleil : 17:03 UTC (18:03 LT)

Météo

L'essentiel des conditions de vol

VIGILANCE MÉTÉO FRANCE - Drôme (26)
Pas de vigilances particulieres
METAR de LFLU
LFLU 241800Z AUTO 07004KT 6000 NSC M00/M03 Q1030

Date d'émission: 24/01/2022
Heure d'émission: 18:00 UTC
Vent: 070° pour 4 KT (7 km/h)
Visibilité horizontale: 6000 m
Plafond : Pas de nuages significatifs (NSC)
Température: 0 °C
Point de rosée: -3 °C
Humidité: 80%
Pression (QNH): 1030 hPa
Prévision 24h pour Valence (5 km)
Vent : 27° pour 2 KT (6 km/h)
Temperature Maxi: 3 °C
Temperature Min: 3 °C
Humidité : 76%
Condition : Ciel dégagé



Warning: count(): Parameter must be an array or an object that implements Countable in /homepages/6/d509196549/htdocs/droneoxygene/briefing.php on line 743
WEBCAM POUR PORTES-LES-VALENCE

Réglementation

Voler en sécurité

CARTES AERONAUTIQUE 1/500.000
CARTES VAC (LFLU)
SUP AIP




Chargement des AIP...
NOTAM (PORTES-LES-VALENCE + Terrain à proximité / FIR )




Chargement des NOTAMS...
CONTACT PREFECTURE 26
Drôme (26) : ddt-satem@drome.gouv.fr


Avertissement : Les données mises à disposition sont indicatives. Oxygène Drone ne pourra être tenu responsable de dégâts causés aux biens et aux personnes.